地図

経路データ

SID SEASON NUMBER BASIN SUBBASIN NAME ISO_TIME NATURE LAT LON WMO_WIND WMO_PRES WMO_AGENCY TRACK_TYPE DIST2LAND LANDFALL IFLAG USA_AGENCY USA_ATCF_ID USA_LAT USA_LON USA_RECORD USA_STATUS USA_WIND USA_PRES USA_SSHS USA_R34_NE USA_R34_SE USA_R34_SW USA_R34_NW USA_R50_NE USA_R50_SE USA_R50_SW USA_R50_NW USA_R64_NE USA_R64_SE USA_R64_SW USA_R64_NW USA_POCI USA_ROCI USA_RMW USA_EYE TOKYO_LAT TOKYO_LON TOKYO_GRADE TOKYO_WIND TOKYO_PRES TOKYO_R50_DIR TOKYO_R50_LONG TOKYO_R50_SHORT TOKYO_R30_DIR TOKYO_R30_LONG TOKYO_R30_SHORT TOKYO_LAND CMA_LAT CMA_LON CMA_CAT CMA_WIND CMA_PRES HKO_LAT HKO_LON HKO_CAT HKO_WIND HKO_PRES NEWDELHI_LAT NEWDELHI_LON NEWDELHI_GRADE NEWDELHI_WIND NEWDELHI_PRES NEWDELHI_CI NEWDELHI_DP NEWDELHI_POCI REUNION_LAT REUNION_LON REUNION_TYPE REUNION_WIND REUNION_PRES REUNION_TNUM REUNION_CI REUNION_RMW REUNION_R34_NE REUNION_R34_SE REUNION_R34_SW REUNION_R34_NW REUNION_R50_NE REUNION_R50_SE REUNION_R50_SW REUNION_R50_NW REUNION_R64_NE REUNION_R64_SE REUNION_R64_SW REUNION_R64_NW BOM_LAT BOM_LON BOM_TYPE BOM_WIND BOM_PRES BOM_TNUM BOM_CI BOM_RMW BOM_R34_NE BOM_R34_SE BOM_R34_SW BOM_R34_NW BOM_R50_NE BOM_R50_SE BOM_R50_SW BOM_R50_NW BOM_R64_NE BOM_R64_SE BOM_R64_SW BOM_R64_NW BOM_ROCI BOM_POCI BOM_EYE BOM_POS_METHOD BOM_PRES_METHOD NADI_LAT NADI_LON NADI_CAT NADI_WIND NADI_PRES WELLINGTON_LAT WELLINGTON_LON WELLINGTON_WIND WELLINGTON_PRES DS824_LAT DS824_LON DS824_STAGE DS824_WIND DS824_PRES TD9636_LAT TD9636_LON TD9636_STAGE TD9636_WIND TD9636_PRES TD9635_LAT TD9635_LON TD9635_WIND TD9635_PRES TD9635_ROCI NEUMANN_LAT NEUMANN_LON NEUMANN_CLASS NEUMANN_WIND NEUMANN_PRES MLC_LAT MLC_LON MLC_CLASS MLC_WIND MLC_PRES USA_GUST BOM_GUST BOM_GUST_PER REUNION_GUST REUNION_GUST_PER USA_SEAHGT USA_SEARAD_NE USA_SEARAD_SE USA_SEARAD_SW USA_SEARAD_NW STORM_SPEED STORM_DIR
1975335S11136 1976 143 SP EA KIM 1975-12-01 00:00:00 TS -10.5000 135.800 main 179 151 O________OO___ jtwc_sh SH051976 -10.5000 135.800 25 -1 -10.5000 135.800 TC 25 -10.5000 135.800 1 24 8 131
1975335S11136 1976 143 SP EA KIM 1975-12-01 03:00:00 TS -10.7620 136.109 main 141 112 P________PP___ SH051976 -10.7726 136.125 25 -1 -10.7726 136.125 TC 25 -10.7409 136.076 1 23 7 131
1975335S11136 1976 143 SP EA KIM 1975-12-01 06:00:00 TS -10.9851 136.377 main 112 100 O________OP___ jtwc_sh SH051976 -11.0000 136.400 25 -1 -11.0000 136.400 TC 25 -10.9553 136.332 1 23 6 129
1975335S11136 1976 143 SP EA KIM 1975-12-01 09:00:00 TS -11.1357 136.574 main 101 90 P________PP___ SH051976 -11.1450 136.588 22 -1 -11.1450 136.588 TC 22 -11.1171 136.547 1 22 4 124
1975335S11136 1976 143 SP EA KIM 1975-12-01 12:00:00 TS -11.2000 136.700 main 92 92 O________OO___ jtwc_sh SH051976 -11.2000 136.700 20 -1 -11.2000 136.700 TC 20 -11.2000 136.700 1 22 2 102
1975335S11136 1976 143 SP EA KIM 1975-12-01 15:00:00 TS -11.1784 136.775 main 95 95 P________PP___ SH051976 -11.1725 136.773 20 -1 -11.1725 136.773 TC 20 -11.1902 136.779 1 21 1 45
1975335S11136 1976 143 SP EA KIM 1975-12-01 18:00:00 TS -11.1075 136.801 main 105 105 O________OP___ jtwc_sh SH051976 -11.1000 136.800 20 -1 -11.1000 136.800 TC 20 -11.1224 136.803 1 21 1 10
1975335S11136 1976 143 SP EA KIM 1975-12-01 21:00:00 TS -11.0378 136.800 main 116 116 P________PP___ SH051976 -11.0350 136.800 20 -1 -11.0350 136.800 TC 20 -11.0434 136.800 1 21 1 0
1975335S11136 1976 143 SP EA KIM 1975-12-02 00:00:00 TS -11.0077 136.808 25 1000 bom main 116 116 O_____O__OO___ jtwc_sh SH051976 -11.0000 136.800 20 -1 -11.1000 136.900 20 25 1000 2.00000 -11.0000 136.800 TC 20 -11.0000 136.800 1 21 45 45 1 99
1975335S11136 1976 143 SP EA KIM 1975-12-02 03:00:00 TS -11.0465 136.852 main 120 109 P_____P__PP___ SH051976 -11.0200 136.843 22 -1 -11.1969 136.902 20 27 998 -11.0200 136.843 TC 22 -11.0244 136.847 1 22 2 147
1975335S11136 1976 143 SP EA KIM 1975-12-02 06:00:00 TS -11.1397 136.900 main 109 89 O_____P__OP___ jtwc_sh SH051976 -11.1000 136.900 25 -1 -11.3050 136.902 20 30 997 -11.1000 136.900 TC 25 -11.0950 136.900 1 23 2 158
1975335S11136 1976 143 SP EA KIM 1975-12-02 09:00:00 TS -11.2697 136.939 main 89 86 P_____P__PP___ SH051976 -11.2125 136.950 25 -1 -11.4356 136.902 20 32 996 -11.2125 136.950 TC 25 -11.2181 136.953 1 24 3 167
1975335S11136 1976 143 SP EA KIM 1975-12-02 12:00:00 TS -11.4500 136.975 35 995 bom main 86 63 O_____O__OO___ jtwc_sh SH051976 -11.4000 137.000 25 -1 -11.6000 136.900 30 35 995 3.00000 -11.4000 137.000 TC 25 -11.4000 137.000 1 25 49 49 5 170
1975335S11136 1976 143 SP EA KIM 1975-12-02 15:00:00 TS -11.7153 137.014 main 63 33 P_____P__PP___ SH051976 -11.6775 137.057 25 -1 -11.8028 136.894 30 37 994 -11.6775 137.057 TC 25 -11.7034 137.048 1 25 6 173
1975335S11136 1976 143 SP EA KIM 1975-12-02 18:00:00 TS -12.0187 137.042 main 33 0 O_____P__OP___ jtwc_sh SH051976 -12.0000 137.100 25 -1 -12.0225 136.880 30 40 993 -12.0000 137.100 TC 25 -12.0525 137.087 1 26 6 176
1975335S11136 1976 143 SP EA KIM 1975-12-02 21:00:00 TS -12.3278 137.047 main 0 0 P_____P__PP___ SH051976 -12.3525 137.115 25 -1 -12.2309 136.851 30 42 992 -12.3525 137.115 TC 25 -12.3753 137.108 1 26 5 0
1975335S11136 1976 143 SP EA KIM 1975-12-03 00:00:00 TS -12.5500 137.025 45 992 bom main 15 15 O_____O__OO___ jtwc_sh SH051976 -12.6000 137.100 25 -1 -12.4000 136.800 30 45 992 3.00000 3 -12.6000 137.100 TC 25 -12.6000 137.100 1 27 64 64 3 196
1975335S11136 1976 143 SP EA KIM 1975-12-03 03:00:00 TS -12.5834 136.980 main 21 10 P_____P__PP___ SH051976 -12.6100 137.065 30 -1 -12.5053 136.722 30 41 993 -12.6100 137.065 TC 30 -12.6084 137.070 1 31 1 284
1975335S11136 1976 143 SP EA KIM 1975-12-03 06:00:00 TS -12.5212 136.908 main 10 0 O_____P__OP___ jtwc_sh SH051976 -12.5000 137.000 35 0 -12.5675 136.623 30 37 994 -12.5000 137.000 TC 35 -12.5174 137.010 1 36 2 313
1975335S11136 1976 143 SP EA KIM 1975-12-03 09:00:00 TS -12.4359 136.819 main 0 0 P_____P__PP___ SH051976 -12.3775 136.922 40 0 -12.5959 136.512 30 33 995 -12.3775 136.922 TC 40 -12.3928 136.920 1 41 3 306
1975335S11136 1976 143 SP EA KIM 1975-12-03 12:00:00 TS -12.3750 136.700 30 996 bom main 0 0 O_____O__OO___ jtwc_sh SH051976 -12.3000 136.800 45 0 -12.6000 136.400 20 30 996 -12.3000 136.800 TC 45 -12.3000 136.800 2 46 45 45 3 272
1975335S11136 1976 143 SP EA KIM 1975-12-03 15:00:00 TS -12.4280 136.537 main 0 0 P_____P__PP___ SH051976 -12.3775 136.608 42 0 -12.5966 136.296 20 27 997 -12.3775 136.608 TC 42 -12.3604 136.638 2 42 4 248
1975335S11136 1976 143 SP EA KIM 1975-12-03 18:00:00 TS -12.5075 136.361 main 0 0 O_____P__OP___ jtwc_sh SH051976 -12.5000 136.400 40 0 -12.5725 136.192 20 25 998 -12.5000 136.400 TC 40 -12.4576 136.450 2 38 4 247
1975335S11136 1976 143 SP EA KIM 1975-12-03 21:00:00 TS -12.5620 136.206 main 0 0 P_____P__PP___ SH051976 -12.5800 136.235 35 0 -12.5372 136.093 20 22 999 -12.5800 136.235 TC 35 -12.5510 136.263 2 34 3 256
1975335S11136 1976 143 SP EA KIM 1975-12-04 00:00:00 TS -12.5750 136.075 20 1000 bom main 0 0 O_____O__OO___ jtwc_sh SH051976 -12.6000 136.100 30 -1 -12.5000 136.000 20 20 1000 -12.6000 136.100 TC 30 -12.6000 136.100 1 30 45 45 2 282
1975335S11136 1976 143 SP EA KIM 1975-12-04 03:00:00 TS -12.5135 135.972 main 0 0 P_____P__PP___ SH051976 -12.5225 135.985 30 -1 -12.4750 135.918 20 20 1000 -12.5225 135.985 TC 30 -12.5340 136.000 1 30 2 311
1975335S11136 1976 143 SP EA KIM 1975-12-04 06:00:00 TS -12.4181 135.892 main 0 0 O_____P__OP___ jtwc_sh SH051976 -12.4000 135.900 30 -1 -12.4500 135.843 20 20 1000 -12.4000 135.900 TC 30 -12.4224 135.927 1 30 2 324
1975335S11136 1976 143 SP EA KIM 1975-12-04 09:00:00 TS -12.3236 135.834 main 0 0 P_____P__PP___ SH051976 -12.2850 135.850 30 -1 -12.4250 135.771 20 20 1000 -12.2850 135.850 TC 30 -12.2996 135.866 1 30 2 326
1975335S11136 1976 143 SP EA KIM 1975-12-04 12:00:00 TS -12.2500 135.775 20 1000 bom main 0 0 O_____O__OO___ jtwc_sh SH051976 -12.2000 135.800 30 -1 -12.4000 135.700 20 20 1000 -12.2000 135.800 TC 30 -12.2000 135.800 1 30 45 45 2 310
1975335S11136 1976 143 SP EA KIM 1975-12-04 15:00:00 TS -12.2229 135.708 main 0 0 P_____P__PP___ SH051976 -12.1850 135.708 27 -1 -12.3667 135.662 20 20 1000 -12.1850 135.708 TC 27 -12.1548 135.756 1 28 1 282
1975335S11136 1976 143 SP EA KIM 1975-12-04 18:00:00 TS -12.2186 135.629 main 0 0 O_____P__OP___ jtwc_sh SH051976 -12.2000 135.600 25 -1 -12.3348 135.617 20 20 1000 -12.2000 135.600 TC 25 -12.1396 135.697 1 27 2 274
1975335S11136 1976 143 SP EA KIM 1975-12-04 21:00:00 TS -12.2125 135.551 main 0 0 P_____P__PP___ SH051976 -12.1924 135.537 25 -1 -12.3104 135.540 20 20 1000 -12.1924 135.537 TC 25 -12.1546 135.590 1 25 2 268
1975335S11136 1976 143 SP EA KIM 1975-12-05 00:00:00 TS -12.2250 135.400 20 1000 bom main 0 0 O_____O__OO___ jtwc_sh SH051976 -12.2000 135.400 25 -1 -12.3000 135.400 20 20 1000 -12.2000 135.400 TC 25 -12.2000 135.400 1 24 45 45 4 265
1975335S11136 1976 143 SP EA KIM 1975-12-05 03:00:00 TS -12.2472 135.104 main 10 0 P_____P__PP___ SH051976 -12.2275 135.102 25 -1 -12.2783 135.164 20 20 1000 -12.2275 135.102 TC 25 -12.2556 135.046 1 24 7 263
1975335S11136 1976 143 SI WA KIM 1975-12-05 06:00:00 TS -12.3040 134.721 main 0 0 O_____P__OP___ jtwc_sh SH051976 -12.3000 134.700 25 -1 -12.2752 134.867 20 20 1000 -12.3000 134.700 TC 25 -12.3409 134.615 1 25 8 259
1975335S11136 1976 143 SI WA KIM 1975-12-05 09:00:00 TS -12.4051 134.292 main 0 0 P_____P__PP___ SH051976 -12.4276 134.228 25 -1 -12.3095 134.536 20 20 1000 -12.4276 134.228 TC 25 -12.4556 134.177 1 26 8 253
1975335S11136 1976 143 SI WA KIM 1975-12-05 12:00:00 TS -12.5500 133.900 20 1000 bom main 0 0 O_____O__OO___ jtwc_sh SH051976 -12.6000 133.800 25 -1 -12.4000 134.200 20 20 1000 -12.6000 133.800 TC 25 -12.6000 133.800 1 27 45 45 7 243
1975335S11136 1976 143 SI WA KIM 1975-12-05 15:00:00 TS -12.7299 133.628 main 0 0 P_____P__PP___ SH051976 -12.7924 133.547 25 -1 -12.5761 133.869 20 20 1000 -12.7924 133.547 TC 25 -12.7588 133.550 1 27 6 230
1975335S11136 1976 143 SI WA KIM 1975-12-05 18:00:00 TS -12.9471 133.421 main 0 0 O_____P__OP___ jtwc_sh SH051976 -13.0000 133.400 25 -1 -12.8059 133.542 20 20 1000 -13.0000 133.400 TC 25 -12.9472 133.373 1 27 6 219
1975335S11136 1976 143 SI WA KIM 1975-12-05 21:00:00 TS -13.1602 133.267 main 0 0 P_____P__PP___ SH051976 -13.1850 133.277 25 -1 -13.0577 133.244 20 20 1000 -13.1850 133.277 TC 25 -13.1620 133.259 1 27 5 208
1975335S11136 1976 143 SI WA KIM 1975-12-06 00:00:00 TS -13.3923 133.185 20 1000 bom main 0 0 O_____O__OO___ jtwc_sh SH051976 -13.4000 133.200 25 -1 -13.3000 133.000 20 20 1000 -13.4000 133.200 TC 25 -13.4000 133.200 1 27 45 45 6 195
1975335S11136 1976 143 SI WA KIM 1975-12-06 03:00:00 TS -13.6916 133.122 main 0 0 P_____P__PP___ SH051976 -13.6925 133.120 27 -1 -13.4919 132.862 20 -13.6925 133.120 TC 27 -13.6898 133.126 1 27 6 188
1975335S11136 1976 143 SI WA KIM 1975-12-06 06:00:00 TS -13.9982 133.102 main 0 0 O_____P__OP___ jtwc_sh SH051976 -14.0000 133.100 30 -1 -13.6650 132.805 20 -14.0000 133.100 TC 30 -13.9946 133.107 1 28 6 176
1975335S11136 1976 143 SI WA KIM 1975-12-06 09:00:00 TS -14.2740 133.152 main 0 0 P_____P__PP___ SH051976 -14.2724 133.148 30 -1 -13.8182 132.823 20 -14.2724 133.148 TC 30 -14.2772 133.160 1 28 5 159
1975335S11136 1976 143 SI WA KIM 1975-12-06 12:00:00 TS -14.5000 133.300 main 0 0 O_____P__OO___ jtwc_sh SH051976 -14.5000 133.300 30 -1 -13.9503 132.907 20 -14.5000 133.300 TC 30 -14.5000 133.300 1 29 6 136
1975335S11136 1976 143 SI WA KIM 1975-12-06 15:00:00 TS -14.6778 133.560 main 0 0 P_____P__PP___ SH051976 -14.6950 133.562 27 -1 -14.0600 133.050 20 -14.6950 133.562 TC 27 -14.6435 133.555 1 28 6 115
1975335S11136 1976 143 SI WA KIM 1975-12-06 18:00:00 TS -14.7735 133.897 main 0 0 O_____P__OP___ jtwc_sh SH051976 -14.8000 133.900 25 -1 -14.1460 133.244 20 -14.8000 133.900 TC 25 -14.7205 133.890 1 27 7 98
1975335S11136 1976 143 SI WA KIM 1975-12-06 21:00:00 TS -14.7708 134.257 main 0 0 P_____P__PP___ SH051976 -14.7875 134.258 25 -1 -14.2069 133.482 20 -14.7875 134.258 TC 25 -14.7373 134.255 1 26 7 84
1975335S11136 1976 143 SI WA KIM 1975-12-07 00:00:00 TS -14.7000 134.600 main 0 0 O_____P__OO___ jtwc_sh SH051976 -14.7000 134.600 25 -1 -14.2416 133.756 20 -14.7000 134.600 TC 25 -14.7000 134.600 1 25 6 76
1975335S11136 1976 143 SI WA KIM 1975-12-07 03:00:00 TS -14.6211 134.872 main 0 0 P_____P__PP___ SH051976 -14.6149 134.872 25 -1 -14.2487 134.058 20 -14.6149 134.872 TC 25 -14.6333 134.870 1 26 5 68
1975335S11136 1976 143 SP EA KIM 1975-12-07 06:00:00 TS -14.5058 135.103 main 0 0 O_____P__OP___ jtwc_sh SH051976 -14.5000 135.100 25 -1 -14.2268 134.379 20 -14.5000 135.100 TC 25 -14.5174 135.110 1 27 5 59
1975335S11136 1976 143 SP EA KIM 1975-12-07 09:00:00 TS -14.3609 135.322 main 0 0 P_____P__PP___ SH051976 -14.3575 135.323 27 -1 -14.1748 134.713 20 -14.3575 135.323 TC 27 -14.3677 135.320 1 28 5 51
1975335S11136 1976 143 SP EA KIM 1975-12-07 12:00:00 TS -14.2000 135.500 main 0 0 O_____P__OO___ jtwc_sh SH051976 -14.2000 135.500 30 -1 -14.0915 135.051 20 -14.2000 135.500 TC 30 -14.2000 135.500 1 29 4 43
1975335S11136 1976 143 SP EA KIM 1975-12-07 15:00:00 TS -14.0527 135.612 main 0 0 P_____P__PP___ SH051976 -14.0575 135.607 30 -1 -13.9758 135.385 20 -14.0575 135.607 TC 30 -14.0431 135.621 1 29 4 33
1975335S11136 1976 143 SP EA KIM 1975-12-07 18:00:00 TS -13.8907 135.707 main 0 0 O_____P__OP___ jtwc_sh SH051976 -13.9000 135.700 30 -1 -13.8264 135.708 20 -13.9000 135.700 TC 30 -13.8721 135.720 1 29 4 30
1975335S11136 1976 143 SP EA KIM 1975-12-07 21:00:00 TS -13.7016 135.824 main 0 0 P_____P__PP___ SH051976 -13.7074 135.820 30 -1 -13.6424 136.012 20 -13.7074 135.820 TC 30 -13.6900 135.833 1 29 5 36
1975335S11136 1976 143 SP EA KIM 1975-12-07 23:00:00 TS -13.5623 135.953 20 1000 bom main 10 10 P_____O__PP___ SH051976 -13.5693 135.930 30 -1 -13.5000 136.200 20 20 1000 -13.5693 135.930 TC 30 -13.5640 135.936 1 29 45 45 6 46
1975335S11136 1976 143 SP EA KIM 1975-12-08 00:00:00 TS -13.4821 136.057 main 21 0 O_____P__OO___ jtwc_sh SH051976 -13.5000 136.000 30 -1 -13.4156 136.279 20 20 999 -13.5000 136.000 TC 30 -13.5000 136.000 1 30 7 51
1975335S11136 1976 143 SP EA KIM 1975-12-08 03:00:00 TS -13.2526 136.345 main 0 0 P_____P__PP___ SH051976 -13.3000 136.270 30 -1 -13.1548 136.523 20 20 998 -13.3000 136.270 TC 30 -13.2910 136.264 1 31 8 52
1975335S11136 1976 143 SP EA KIM 1975-12-08 05:00:00 TS -13.0969 136.564 20 997 bom main 0 0 P_____O__PP___ SH051976 -13.1667 136.486 30 -1 -13.0000 136.700 20 20 997 1.50000 -13.1667 136.486 TC 30 -13.1483 136.472 1 32 45 45 8 55
1975335S11136 1976 143 SP EA KIM 1975-12-08 06:00:00 TS -13.0221 136.686 main 0 0 O_____P__OP_O_ jtwc_sh SH051976 -13.1000 136.600 30 -1 -12.9386 136.792 20 20 997 -13.1000 136.600 TC 30 -13.0776 136.583 1 32 -13.0000 136.900 TC 35 997 8 59
1975335S11136 1976 143 SP EA KIM 1975-12-08 09:00:00 TS -12.8372 137.016 main 31 31 P_____P__PP_P_ SH051976 -12.8925 136.943 32 -1 -12.7891 137.087 20 23 997 -12.8925 136.943 TC 32 -12.8754 136.936 1 33 -12.8550 137.188 TC 35 997 7 62
1975335S11136 1976 143 SP EA KIM 1975-12-08 11:00:00 TS -12.7270 137.248 25 997 bom main 44 54 P_____O__PP_P_ SH051976 -12.7609 137.181 34 0 -12.7000 137.300 20 25 997 2.00000 -12.7609 137.181 TC 34 -12.7545 137.179 1 34 -12.7534 137.392 TC 35 997 45 45 8 65
1975335S11136 1976 143 SP EA KIM 1975-12-08 12:00:00 TS -12.6741 137.368 main 62 54 O_____P__OO_O_ jtwc_sh SH051976 -12.7000 137.300 35 0 -12.6447 137.411 20 25 996 -12.7000 137.300 TC 35 -12.7000 137.300 2 35 -12.7000 137.500 TC 35 997 8 65
1975335S11136 1976 143 SP EA KIM 1975-12-08 15:00:00 TS -12.5149 137.714 main 79 79 P_____P__PP_P_ SH051976 -12.5275 137.650 35 0 -12.4842 137.761 20 28 996 -12.5275 137.650 TC 35 -12.5304 137.631 2 36 -12.5350 137.850 TC 35 996 7 67
1975335S11136 1976 143 SP EA KIM 1975-12-08 17:00:00 TS -12.4284 137.948 30 996 bom main 98 109 P_____O__PP_P_ SH051976 -12.4359 137.883 35 0 -12.4000 138.000 20 30 996 2.50000 -12.4359 137.883 TC 35 -12.4350 137.856 2 36 -12.4386 138.086 TC 35 996 45 45 7 71
1975335S11136 1976 143 SP EA KIM 1975-12-08 18:00:00 TS -12.3944 138.065 main 120 120 O_____P__OP_O_ jtwc_sh SH051976 -12.4000 138.000 35 0 -12.3719 138.119 20 31 995 -12.4000 138.000 TC 35 -12.3947 137.970 2 37 -12.4000 138.200 TC 35 996 7 77
1975335S11136 1976 143 SP EA KIM 1975-12-08 21:00:00 TS -12.3252 138.407 main 152 152 P_____P__PP_P_ SH051976 -12.3199 138.342 37 0 -12.3225 138.475 20 36 994 -12.3199 138.342 TC 37 -12.3116 138.325 2 38 -12.3349 138.500 TC 37 995 7 81
1975335S11136 1976 143 SP EA KIM 1975-12-08 23:00:00 TS -12.3033 138.636 40 994 bom main 173 184 P_____O__PP_P_ SH051976 -12.3000 138.578 39 0 -12.3000 138.700 30 40 994 3.00000 -12.3000 138.578 TC 39 -12.2948 138.572 2 38 -12.3114 138.697 TC 39 994 55 55 7 85
1975335S11136 1976 143 SP EA KIM 1975-12-09 00:00:00 TS -12.2966 138.750 main 184 184 O_____P__OO_O_ jtwc_sh SH051976 -12.3000 138.700 40 0 -12.2797 138.798 30 40 993 -12.3000 138.700 TC 40 -12.3000 138.700 2 39 -12.3000 138.800 TC 40 994 7 85
1975335S11136 1976 143 SP EA KIM 1975-12-09 03:00:00 TS -12.2630 139.102 main 228 228 P_____P__PP_P_ SH051976 -12.3049 139.085 40 0 -12.2225 139.083 30 43 991 -12.3049 139.085 TC 40 -12.3132 139.116 2 40 -12.2200 139.143 TC 42 992 7 88
1975335S11136 1976 143 SP EA KIM 1975-12-09 05:00:00 TS -12.2762 139.350 45 990 bom main 250 230 P_____O__PP_P_ SH051976 -12.3552 139.358 40 0 -12.2000 139.300 30 45 990 3.00000 -12.3552 139.358 TC 40 -12.3647 139.405 2 40 -12.1938 139.381 TC 44 990 64 64 7 95
1975335S11136 1976 143 SP EA KIM 1975-12-09 06:00:00 TS -12.2974 139.481 main 230 207 O_____P__OP_O_ jtwc_sh SH051976 -12.4000 139.500 40 0 -12.1791 139.434 30 45 990 -12.4000 139.500 TC 40 -12.4052 139.551 2 41 -12.2000 139.500 TC 45 990 8 104
1975335S11136 1976 143 SP EA KIM 1975-12-09 08:00:00 TS -12.3720 139.745 45 990 bom main 207 186 P_____O__PP_P_ SH051976 -12.5134 139.803 41 0 -12.2000 139.700 30 45 990 3.00000 -12.5134 139.803 TC 41 -12.5194 139.841 2 41 -12.2303 139.717 TC 45 990 64 64 8 110
1975335S11136 1976 143 SP EA KIM 1975-12-09 09:00:00 TS -12.4371 139.874 main 186 162 P_____P__PP_P_ SH051976 -12.5900 139.958 42 0 -12.2708 139.802 30 45 990 -12.5900 139.958 TC 42 -12.5945 139.985 2 42 -12.2674 139.828 TC 45 990 9 123
1975335S11136 1976 143 SP EA KIM 1975-12-09 11:00:00 TS -12.6217 140.135 45 990 bom main 162 152 P_____O__PP_P_ SH051976 -12.7833 140.259 44 0 -12.5000 140.000 30 45 990 3.00000 -12.7833 140.259 TC 44 -12.7841 140.265 2 42 -12.3995 140.066 TC 45 990 64 64 10 128
1975335S11136 1976 143 SP EA KIM 1975-12-09 12:00:00 TS -12.7358 140.269 main 141 108 O_____P__OO_O_ jtwc_sh SH051976 -12.9000 140.400 45 0 -12.6145 140.115 30 43 990 -12.9000 140.400 TC 45 -12.9000 140.400 2 43 -12.5000 140.200 TC 45 990 11 134
1975335S11136 1976 143 SP EA KIM 1975-12-09 14:00:00 TS -13.0076 140.550 40 992 bom main 108 98 P_____O__PP_P_ SH051976 -13.1466 140.649 43 0 -12.9000 140.400 30 40 992 3.00000 -13.1466 140.649 TC 43 -13.1750 140.658 2 40 -12.7672 140.515 TC 43 991 55 55 12 136
1975335S11136 1976 143 SP EA KIM 1975-12-09 15:00:00 TS -13.1726 140.704 main 100 64 P_____P__PP_P_ SH051976 -13.2899 140.765 42 0 -13.0788 140.590 30 40 992 -13.2899 140.765 TC 42 -13.3318 140.782 2 40 -12.9326 140.685 TC 42 992 14 140
1975335S11136 1976 143 SP EA KIM 1975-12-09 17:00:00 TS -13.5384 141.005 40 994 bom main 64 48 P_____O__PP_P_ SH051976 -13.6166 140.989 40 0 -13.5000 141.000 30 40 994 3.00000 -13.6166 140.989 TC 40 -13.6782 141.020 2 37 -13.3036 141.031 TC 40 993 55 55 14 143
1975335S11136 1976 143 SP EA KIM 1975-12-09 18:00:00 TS -13.7373 141.145 main 48 21 O_____P__OP_O_ jtwc_sh SH051976 -13.8000 141.100 40 0 -13.7308 141.175 30 38 994 -13.8000 141.100 TC 40 -13.8651 141.136 2 37 -13.5000 141.200 TC 40 994 15 148
1975335S11136 1976 143 SP EA KIM 1975-12-09 20:00:00 TS -14.1531 141.407 35 995 bom main 21 10 P_____O__PP_P_ SH051976 -14.2038 141.328 36 0 -14.2000 141.500 30 35 995 3.00000 -14.2038 141.328 TC 36 -14.2602 141.361 2 34 -13.8975 141.517 TC 38 994 49 49 15 148
1975335S11136 1976 143 SP EA KIM 1975-12-09 21:00:00 TS -14.3671 141.549 main 10 0 P_____P__PP_P_ SH051976 -14.4201 141.444 35 0 -14.4156 141.674 30 35 995 -14.4201 141.444 TC 35 -14.4658 141.472 2 34 -14.0975 141.667 TC 37 994 15 147
1975335S11136 1976 143 SP EA KIM 1975-12-09 23:00:00 TS -14.7878 141.835 35 995 bom main 0 0 P_____O__PP_P_ SH051976 -14.8705 141.681 31 -1 -14.8000 142.000 30 35 995 -14.8705 141.681 TC 31 -14.8870 141.691 2 31 -14.4990 141.957 TC 35 994 49 49 15 144
1975335S11136 1976 143 SP EA KIM 1975-12-10 00:00:00 TS -14.9818 142.004 main 0 0 O_____P__OO_O_ jtwc_sh SH051976 -15.1000 141.800 30 -1 -14.9636 142.133 30 34 995 -15.1000 141.800 TC 30 -15.1000 141.800 1 31 -14.7000 142.100 TC 35 995 12 135
1975335S11136 1976 143 SP EA KIM 1975-12-10 03:00:00 NR -15.3467 142.405 main 0 0 ______P_______ SH051976 -1 -15.3467 142.405 30 31 996 TC 1 TC 8 141
1975335S11136 1976 143 SP EA KIM 1975-12-10 06:00:00 NR -15.6020 142.522 main 0 0 ______P_______ -1 -15.6020 142.522 30 29 997 1 4 163
1975335S11136 1976 143 SP EA KIM 1975-12-10 09:00:00 NR -15.7722 142.537 main 0 0 ______P_______ -1 -15.7722 142.537 30 27 998 1 3 184
1975335S11136 1976 143 SP EA KIM 1975-12-10 12:00:00 NR -15.9000 142.500 25 1000 bom main 0 ______O_______ -1 -15.9000 142.500 20 25 1000 45 45 3 193

デジタル台風データ・検索

IBTrACS Databaseについて

本データベースは、米国NOAAが公開する1842年以降の世界の熱帯低気圧のベストトラックデータアーカイブInternational Best Track Archive for Climate Stewardship (IBTrACS)を、ウェブで閲覧しやすい形式に変換したものです。

最終更新日:2021-11-26